sensor_id;sensor_type;location;lat;lon;timestamp;P1;durP1;ratioP1;P2;durP2;ratioP2
40284;SDS011;25997;50.214;19.354;2023-07-24T00:01:48;6.38;;;3.80;;
40284;SDS011;25997;50.214;19.354;2023-07-24T00:04:52;6.47;;;4.00;;
40284;SDS011;25997;50.214;19.354;2023-07-24T00:07:54;6.78;;;3.88;;
40284;SDS011;25997;50.214;19.354;2023-07-24T00:10:57;4.80;;;3.72;;
40284;SDS011;25997;50.214;19.354;2023-07-24T00:13:59;5.00;;;4.07;;
40284;SDS011;25997;50.214;19.354;2023-07-24T00:17:01;4.55;;;3.55;;
40284;SDS011;25997;50.214;19.354;2023-07-24T00:20:06;5.72;;;3.75;;
40284;SDS011;25997;50.214;19.354;2023-07-24T00:23:09;4.70;;;3.92;;
40284;SDS011;25997;50.214;19.354;2023-07-24T00:26:12;5.90;;;3.97;;
40284;SDS011;25997;50.214;19.354;2023-07-24T00:29:14;5.10;;;3.90;;
40284;SDS011;25997;50.214;19.354;2023-07-24T00:32:16;4.40;;;3.40;;
40284;SDS011;25997;50.214;19.354;2023-07-24T00:35:20;4.90;;;3.95;;
40284;SDS011;25997;50.214;19.354;2023-07-24T00:38:22;4.95;;;3.58;;
40284;SDS011;25997;50.214;19.354;2023-07-24T00:41:25;5.45;;;4.05;;
40284;SDS011;25997;50.214;19.354;2023-07-24T00:44:28;5.55;;;3.92;;
40284;SDS011;25997;50.214;19.354;2023-07-24T00:47:31;6.00;;;3.97;;
40284;SDS011;25997;50.214;19.354;2023-07-24T00:50:35;5.65;;;4.10;;
40284;SDS011;25997;50.214;19.354;2023-07-24T00:53:40;4.70;;;3.83;;
40284;SDS011;25997;50.214;19.354;2023-07-24T00:56:43;7.18;;;3.88;;
40284;SDS011;25997;50.214;19.354;2023-07-24T00:59:46;5.53;;;4.15;;
40284;SDS011;25997;50.214;19.354;2023-07-24T01:02:49;6.88;;;4.60;;
40284;SDS011;25997;50.214;19.354;2023-07-24T01:05:53;5.25;;;4.10;;
40284;SDS011;25997;50.214;19.354;2023-07-24T01:08:56;6.53;;;4.15;;
40284;SDS011;25997;50.214;19.354;2023-07-24T01:12:00;6.97;;;4.15;;
40284;SDS011;25997;50.214;19.354;2023-07-24T01:15:09;7.35;;;4.47;;
40284;SDS011;25997;50.214;19.354;2023-07-24T01:18:16;8.70;;;4.63;;
40284;SDS011;25997;50.214;19.354;2023-07-24T01:21:27;6.15;;;4.05;;
40284;SDS011;25997;50.214;19.354;2023-07-24T01:24:37;5.22;;;4.20;;
40284;SDS011;25997;50.214;19.354;2023-07-24T01:27:51;6.50;;;4.53;;
40284;SDS011;25997;50.214;19.354;2023-07-24T01:30:54;10.32;;;5.25;;
40284;SDS011;25997;50.214;19.354;2023-07-24T01:33:57;7.72;;;4.55;;
40284;SDS011;25997;50.214;19.354;2023-07-24T01:37:00;6.82;;;4.43;;
40284;SDS011;25997;50.214;19.354;2023-07-24T01:40:03;6.25;;;4.93;;
40284;SDS011;25997;50.214;19.354;2023-07-24T01:43:08;6.10;;;4.38;;
40284;SDS011;25997;50.214;19.354;2023-07-24T01:46:11;5.82;;;4.32;;
40284;SDS011;25997;50.214;19.354;2023-07-24T01:49:13;5.72;;;4.70;;
40284;SDS011;25997;50.214;19.354;2023-07-24T01:52:18;8.43;;;5.25;;
40284;SDS011;25997;50.214;19.354;2023-07-24T01:55:21;5.32;;;4.22;;
40284;SDS011;25997;50.214;19.354;2023-07-24T01:58:25;7.00;;;5.20;;
40284;SDS011;25997;50.214;19.354;2023-07-24T02:01:27;7.88;;;5.05;;
40284;SDS011;25997;50.214;19.354;2023-07-24T02:04:30;7.38;;;5.10;;
40284;SDS011;25997;50.214;19.354;2023-07-24T02:07:32;9.93;;;5.25;;
40284;SDS011;25997;50.214;19.354;2023-07-24T02:10:36;6.78;;;4.43;;
40284;SDS011;25997;50.214;19.354;2023-07-24T02:13:43;6.90;;;4.95;;
40284;SDS011;25997;50.214;19.354;2023-07-24T02:16:46;9.98;;;5.05;;
40284;SDS011;25997;50.214;19.354;2023-07-24T02:19:49;6.97;;;4.50;;
40284;SDS011;25997;50.214;19.354;2023-07-24T02:22:51;9.43;;;4.93;;
40284;SDS011;25997;50.214;19.354;2023-07-24T02:25:54;5.85;;;4.57;;
40284;SDS011;25997;50.214;19.354;2023-07-24T02:28:58;7.10;;;4.95;;
40284;SDS011;25997;50.214;19.354;2023-07-24T02:32:00;6.75;;;5.05;;
40284;SDS011;25997;50.214;19.354;2023-07-24T02:35:03;6.78;;;4.90;;
40284;SDS011;25997;50.214;19.354;2023-07-24T02:38:06;8.85;;;4.90;;
40284;SDS011;25997;50.214;19.354;2023-07-24T02:41:09;6.47;;;4.90;;
40284;SDS011;25997;50.214;19.354;2023-07-24T02:44:12;6.85;;;4.30;;
40284;SDS011;25997;50.214;19.354;2023-07-24T02:47:15;7.03;;;4.20;;
40284;SDS011;25997;50.214;19.354;2023-07-24T02:50:18;8.07;;;4.68;;
40284;SDS011;25997;50.214;19.354;2023-07-24T02:53:21;6.07;;;4.32;;
40284;SDS011;25997;50.214;19.354;2023-07-24T02:56:23;4.88;;;4.30;;
40284;SDS011;25997;50.214;19.354;2023-07-24T02:59:27;5.63;;;4.53;;
40284;SDS011;25997;50.214;19.354;2023-07-24T03:02:32;10.10;;;4.40;;
40284;SDS011;25997;50.214;19.354;2023-07-24T03:05:34;6.38;;;4.78;;
40284;SDS011;25997;50.214;19.354;2023-07-24T03:08:37;8.30;;;4.47;;
40284;SDS011;25997;50.214;19.354;2023-07-24T03:11:39;6.20;;;4.25;;
40284;SDS011;25997;50.214;19.354;2023-07-24T03:14:43;5.65;;;4.15;;
40284;SDS011;25997;50.214;19.354;2023-07-24T03:17:45;8.63;;;3.75;;
40284;SDS011;25997;50.214;19.354;2023-07-24T03:20:48;5.60;;;4.40;;
40284;SDS011;25997;50.214;19.354;2023-07-24T03:23:50;6.47;;;4.38;;
40284;SDS011;25997;50.214;19.354;2023-07-24T03:26:53;5.53;;;4.30;;
40284;SDS011;25997;50.214;19.354;2023-07-24T03:29:57;5.18;;;4.40;;
40284;SDS011;25997;50.214;19.354;2023-07-24T03:33:00;7.97;;;4.93;;
40284;SDS011;25997;50.214;19.354;2023-07-24T03:36:05;6.47;;;4.90;;
40284;SDS011;25997;50.214;19.354;2023-07-24T03:39:09;7.53;;;4.70;;
40284;SDS011;25997;50.214;19.354;2023-07-24T03:42:14;10.32;;;5.45;;
40284;SDS011;25997;50.214;19.354;2023-07-24T03:45:28;5.60;;;4.40;;
40284;SDS011;25997;50.214;19.354;2023-07-24T03:48:30;7.63;;;4.93;;
40284;SDS011;25997;50.214;19.354;2023-07-24T03:51:33;5.88;;;4.75;;
40284;SDS011;25997;50.214;19.354;2023-07-24T03:54:35;7.18;;;4.82;;
40284;SDS011;25997;50.214;19.354;2023-07-24T03:57:38;6.80;;;4.43;;
40284;SDS011;25997;50.214;19.354;2023-07-24T04:00:41;6.90;;;5.05;;
40284;SDS011;25997;50.214;19.354;2023-07-24T04:03:44;5.80;;;4.47;;
40284;SDS011;25997;50.214;19.354;2023-07-24T04:06:47;6.10;;;4.95;;
40284;SDS011;25997;50.214;19.354;2023-07-24T04:09:49;6.30;;;4.97;;
40284;SDS011;25997;50.214;19.354;2023-07-24T04:12:51;9.27;;;4.78;;
40284;SDS011;25997;50.214;19.354;2023-07-24T04:15:55;6.57;;;5.10;;
40284;SDS011;25997;50.214;19.354;2023-07-24T04:19:00;5.95;;;4.93;;
40284;SDS011;25997;50.214;19.354;2023-07-24T04:22:02;7.25;;;4.57;;
40284;SDS011;25997;50.214;19.354;2023-07-24T04:25:05;5.90;;;4.68;;
40284;SDS011;25997;50.214;19.354;2023-07-24T04:28:08;6.43;;;4.78;;
40284;SDS011;25997;50.214;19.354;2023-07-24T04:31:12;6.72;;;5.00;;
40284;SDS011;25997;50.214;19.354;2023-07-24T04:34:14;4.60;;;4.03;;
40284;SDS011;25997;50.214;19.354;2023-07-24T04:37:17;7.82;;;4.93;;
40284;SDS011;25997;50.214;19.354;2023-07-24T04:40:19;8.65;;;5.07;;
40284;SDS011;25997;50.214;19.354;2023-07-24T04:43:21;8.52;;;6.15;;
40284;SDS011;25997;50.214;19.354;2023-07-24T04:46:25;6.68;;;5.57;;
40284;SDS011;25997;50.214;19.354;2023-07-24T04:49:28;8.25;;;5.68;;
40284;SDS011;25997;50.214;19.354;2023-07-24T04:52:31;6.97;;;5.40;;
40284;SDS011;25997;50.214;19.354;2023-07-24T04:55:33;7.28;;;5.00;;
40284;SDS011;25997;50.214;19.354;2023-07-24T04:58:36;11.38;;;5.22;;
40284;SDS011;25997;50.214;19.354;2023-07-24T05:01:40;5.95;;;4.93;;
40284;SDS011;25997;50.214;19.354;2023-07-24T05:04:42;5.80;;;5.20;;
40284;SDS011;25997;50.214;19.354;2023-07-24T05:07:45;7.03;;;5.20;;
40284;SDS011;25997;50.214;19.354;2023-07-24T05:10:47;9.85;;;5.70;;
40284;SDS011;25997;50.214;19.354;2023-07-24T05:13:55;7.57;;;5.85;;
40284;SDS011;25997;50.214;19.354;2023-07-24T05:16:59;6.75;;;5.20;;
40284;SDS011;25997;50.214;19.354;2023-07-24T05:20:01;7.35;;;5.13;;
40284;SDS011;25997;50.214;19.354;2023-07-24T05:23:03;7.90;;;5.07;;
40284;SDS011;25997;50.214;19.354;2023-07-24T05:26:06;7.60;;;5.50;;
40284;SDS011;25997;50.214;19.354;2023-07-24T05:29:08;8.32;;;5.97;;
40284;SDS011;25997;50.214;19.354;2023-07-24T05:32:12;6.10;;;5.40;;
40284;SDS011;25997;50.214;19.354;2023-07-24T05:35:15;8.50;;;5.72;;
40284;SDS011;25997;50.214;19.354;2023-07-24T05:38:17;7.07;;;5.53;;
40284;SDS011;25997;50.214;19.354;2023-07-24T05:41:20;7.78;;;5.50;;
40284;SDS011;25997;50.214;19.354;2023-07-24T05:44:22;7.45;;;5.78;;
40284;SDS011;25997;50.214;19.354;2023-07-24T05:47:26;8.20;;;6.40;;
40284;SDS011;25997;50.214;19.354;2023-07-24T05:50:28;7.68;;;5.28;;
40284;SDS011;25997;50.214;19.354;2023-07-24T05:53:31;7.38;;;5.85;;
40284;SDS011;25997;50.214;19.354;2023-07-24T05:56:33;10.68;;;6.50;;
40284;SDS011;25997;50.214;19.354;2023-07-24T05:59:35;8.10;;;6.55;;
40284;SDS011;25997;50.214;19.354;2023-07-24T06:02:39;6.65;;;5.70;;
40284;SDS011;25997;50.214;19.354;2023-07-24T06:05:41;7.13;;;5.88;;
40284;SDS011;25997;50.214;19.354;2023-07-24T06:08:44;7.25;;;5.60;;
40284;SDS011;25997;50.214;19.354;2023-07-24T06:11:47;6.75;;;5.55;;
40284;SDS011;25997;50.214;19.354;2023-07-24T06:14:50;8.93;;;5.78;;
40284;SDS011;25997;50.214;19.354;2023-07-24T06:17:54;7.45;;;5.78;;
40284;SDS011;25997;50.214;19.354;2023-07-24T06:20:56;7.75;;;6.15;;
40284;SDS011;25997;50.214;19.354;2023-07-24T06:23:58;7.35;;;5.72;;
40284;SDS011;25997;50.214;19.354;2023-07-24T06:27:01;6.60;;;5.47;;
40284;SDS011;25997;50.214;19.354;2023-07-24T06:30:03;7.93;;;5.40;;
40284;SDS011;25997;50.214;19.354;2023-07-24T06:33:08;8.68;;;6.22;;
40284;SDS011;25997;50.214;19.354;2023-07-24T06:36:11;6.43;;;5.82;;
40284;SDS011;25997;50.214;19.354;2023-07-24T06:39:13;7.40;;;5.75;;
40284;SDS011;25997;50.214;19.354;2023-07-24T06:42:16;7.68;;;5.95;;
40284;SDS011;25997;50.214;19.354;2023-07-24T06:45:18;6.57;;;5.18;;
40284;SDS011;25997;50.214;19.354;2023-07-24T06:48:22;7.40;;;5.60;;
40284;SDS011;25997;50.214;19.354;2023-07-24T06:51:25;6.93;;;5.88;;
40284;SDS011;25997;50.214;19.354;2023-07-24T06:54:27;6.47;;;5.72;;
40284;SDS011;25997;50.214;19.354;2023-07-24T06:57:30;6.78;;;6.00;;
40284;SDS011;25997;50.214;19.354;2023-07-24T07:00:32;6.65;;;5.35;;
40284;SDS011;25997;50.214;19.354;2023-07-24T07:03:36;7.30;;;6.18;;
40284;SDS011;25997;50.214;19.354;2023-07-24T07:06:38;8.10;;;5.65;;
40284;SDS011;25997;50.214;19.354;2023-07-24T07:09:41;7.20;;;5.30;;
40284;SDS011;25997;50.214;19.354;2023-07-24T07:12:43;12.15;;;6.18;;
40284;SDS011;25997;50.214;19.354;2023-07-24T07:15:46;7.18;;;5.88;;
40284;SDS011;25997;50.214;19.354;2023-07-24T07:18:50;6.70;;;5.55;;
40284;SDS011;25997;50.214;19.354;2023-07-24T07:21:52;7.68;;;5.60;;
40284;SDS011;25997;50.214;19.354;2023-07-24T07:24:55;7.47;;;5.75;;
40284;SDS011;25997;50.214;19.354;2023-07-24T07:27:57;7.32;;;5.43;;
40284;SDS011;25997;50.214;19.354;2023-07-24T07:30:59;7.25;;;5.57;;
40284;SDS011;25997;50.214;19.354;2023-07-24T07:34:03;6.15;;;5.43;;
40284;SDS011;25997;50.214;19.354;2023-07-24T07:37:06;8.80;;;5.47;;
40284;SDS011;25997;50.214;19.354;2023-07-24T07:40:08;6.82;;;5.82;;
40284;SDS011;25997;50.214;19.354;2023-07-24T07:43:11;6.90;;;5.65;;
40284;SDS011;25997;50.214;19.354;2023-07-24T07:46:13;8.23;;;5.60;;
40284;SDS011;25997;50.214;19.354;2023-07-24T07:49:17;9.23;;;5.60;;
40284;SDS011;25997;50.214;19.354;2023-07-24T07:52:19;6.43;;;5.25;;
40284;SDS011;25997;50.214;19.354;2023-07-24T07:55:23;7.38;;;6.15;;
40284;SDS011;25997;50.214;19.354;2023-07-24T07:58:25;7.35;;;5.75;;
40284;SDS011;25997;50.214;19.354;2023-07-24T08:01:27;7.40;;;5.68;;
40284;SDS011;25997;50.214;19.354;2023-07-24T08:04:32;6.32;;;5.32;;
40284;SDS011;25997;50.214;19.354;2023-07-24T08:07:35;7.05;;;5.35;;
40284;SDS011;25997;50.214;19.354;2023-07-24T08:10:37;5.68;;;5.05;;
40284;SDS011;25997;50.214;19.354;2023-07-24T08:13:40;8.50;;;6.07;;
40284;SDS011;25997;50.214;19.354;2023-07-24T08:16:42;7.50;;;6.10;;
40284;SDS011;25997;50.214;19.354;2023-07-24T08:19:46;8.18;;;6.28;;
40284;SDS011;25997;50.214;19.354;2023-07-24T08:22:48;7.60;;;5.97;;
40284;SDS011;25997;50.214;19.354;2023-07-24T08:25:51;7.57;;;6.07;;
40284;SDS011;25997;50.214;19.354;2023-07-24T08:28:54;7.30;;;6.13;;
40284;SDS011;25997;50.214;19.354;2023-07-24T08:31:57;6.78;;;5.47;;
40284;SDS011;25997;50.214;19.354;2023-07-24T08:35:01;7.03;;;5.88;;
40284;SDS011;25997;50.214;19.354;2023-07-24T08:38:03;9.07;;;6.35;;
40284;SDS011;25997;50.214;19.354;2023-07-24T08:41:08;7.32;;;6.07;;
40284;SDS011;25997;50.214;19.354;2023-07-24T08:44:11;8.68;;;5.90;;
40284;SDS011;25997;50.214;19.354;2023-07-24T08:47:14;8.27;;;6.25;;
40284;SDS011;25997;50.214;19.354;2023-07-24T08:50:19;8.40;;;5.95;;
40284;SDS011;25997;50.214;19.354;2023-07-24T08:53:22;10.40;;;6.50;;
40284;SDS011;25997;50.214;19.354;2023-07-24T08:56:25;8.35;;;6.32;;
40284;SDS011;25997;50.214;19.354;2023-07-24T08:59:28;10.38;;;5.72;;
40284;SDS011;25997;50.214;19.354;2023-07-24T09:02:31;7.57;;;5.70;;
40284;SDS011;25997;50.214;19.354;2023-07-24T09:05:36;9.43;;;6.43;;
40284;SDS011;25997;50.214;19.354;2023-07-24T09:08:39;8.35;;;6.15;;
40284;SDS011;25997;50.214;19.354;2023-07-24T09:11:46;7.75;;;6.28;;
40284;SDS011;25997;50.214;19.354;2023-07-24T09:15:00;8.70;;;6.00;;
40284;SDS011;25997;50.214;19.354;2023-07-24T09:18:04;10.57;;;5.65;;
40284;SDS011;25997;50.214;19.354;2023-07-24T09:21:08;11.45;;;7.20;;
40284;SDS011;25997;50.214;19.354;2023-07-24T09:24:13;7.97;;;6.68;;
40284;SDS011;25997;50.214;19.354;2023-07-24T09:27:16;9.77;;;6.68;;
40284;SDS011;25997;50.214;19.354;2023-07-24T09:30:19;7.60;;;6.22;;
40284;SDS011;25997;50.214;19.354;2023-07-24T09:33:33;8.73;;;6.10;;
40284;SDS011;25997;50.214;19.354;2023-07-24T09:36:38;8.38;;;6.25;;
40284;SDS011;25997;50.214;19.354;2023-07-24T09:39:40;8.77;;;6.88;;
40284;SDS011;25997;50.214;19.354;2023-07-24T09:42:43;8.13;;;6.18;;
40284;SDS011;25997;50.214;19.354;2023-07-24T09:45:45;8.30;;;6.35;;
40284;SDS011;25997;50.214;19.354;2023-07-24T09:48:49;9.20;;;6.85;;
40284;SDS011;25997;50.214;19.354;2023-07-24T09:51:53;9.10;;;6.38;;
40284;SDS011;25997;50.214;19.354;2023-07-24T09:55:02;7.22;;;6.35;;
40284;SDS011;25997;50.214;19.354;2023-07-24T09:58:10;9.60;;;8.25;;
40284;SDS011;25997;50.214;19.354;2023-07-24T10:01:14;9.25;;;6.95;;
40284;SDS011;25997;50.214;19.354;2023-07-24T10:04:17;8.77;;;6.82;;
40284;SDS011;25997;50.214;19.354;2023-07-24T10:07:22;10.00;;;6.95;;
40284;SDS011;25997;50.214;19.354;2023-07-24T10:10:25;7.53;;;6.78;;
40284;SDS011;25997;50.214;19.354;2023-07-24T10:13:29;9.65;;;7.10;;
40284;SDS011;25997;50.214;19.354;2023-07-24T10:16:36;9.10;;;8.10;;
40284;SDS011;25997;50.214;19.354;2023-07-24T10:19:40;8.00;;;7.07;;
40284;SDS011;25997;50.214;19.354;2023-07-24T10:22:44;8.93;;;8.02;;
40284;SDS011;25997;50.214;19.354;2023-07-24T10:25:49;9.07;;;7.60;;
40284;SDS011;25997;50.214;19.354;2023-07-24T10:28:53;11.70;;;8.13;;
40284;SDS011;25997;50.214;19.354;2023-07-24T10:31:56;8.32;;;7.53;;
40284;SDS011;25997;50.214;19.354;2023-07-24T10:34:59;8.55;;;7.03;;
40284;SDS011;25997;50.214;19.354;2023-07-24T10:38:09;8.75;;;6.90;;
40284;SDS011;25997;50.214;19.354;2023-07-24T10:41:12;7.72;;;6.93;;
40284;SDS011;25997;50.214;19.354;2023-07-24T10:44:15;10.82;;;7.90;;
40284;SDS011;25997;50.214;19.354;2023-07-24T10:47:17;8.70;;;7.80;;
40284;SDS011;25997;50.214;19.354;2023-07-24T10:50:21;8.52;;;7.63;;
40284;SDS011;25997;50.214;19.354;2023-07-24T10:53:25;9.10;;;7.68;;
40284;SDS011;25997;50.214;19.354;2023-07-24T10:56:28;9.05;;;8.05;;
40284;SDS011;25997;50.214;19.354;2023-07-24T10:59:38;10.65;;;8.88;;
40284;SDS011;25997;50.214;19.354;2023-07-24T11:02:40;9.73;;;8.40;;
40284;SDS011;25997;50.214;19.354;2023-07-24T11:05:43;8.60;;;6.88;;
40284;SDS011;25997;50.214;19.354;2023-07-24T11:08:52;10.38;;;7.85;;
40284;SDS011;25997;50.214;19.354;2023-07-24T11:11:56;9.07;;;7.38;;
40284;SDS011;25997;50.214;19.354;2023-07-24T11:14:59;9.20;;;7.38;;
40284;SDS011;25997;50.214;19.354;2023-07-24T11:18:01;9.25;;;8.25;;
40284;SDS011;25997;50.214;19.354;2023-07-24T11:21:04;10.20;;;7.25;;
40284;SDS011;25997;50.214;19.354;2023-07-24T11:24:08;8.82;;;7.10;;
40284;SDS011;25997;50.214;19.354;2023-07-24T11:27:12;8.40;;;6.93;;
40284;SDS011;25997;50.214;19.354;2023-07-24T11:30:19;10.75;;;7.45;;
40284;SDS011;25997;50.214;19.354;2023-07-24T11:33:22;9.52;;;7.50;;
40284;SDS011;25997;50.214;19.354;2023-07-24T11:36:27;8.63;;;7.32;;
40284;SDS011;25997;50.214;19.354;2023-07-24T11:39:31;8.98;;;6.88;;
40284;SDS011;25997;50.214;19.354;2023-07-24T11:42:33;10.48;;;7.68;;
40284;SDS011;25997;50.214;19.354;2023-07-24T11:45:41;11.63;;;8.45;;
40284;SDS011;25997;50.214;19.354;2023-07-24T11:48:44;9.45;;;7.78;;
40284;SDS011;25997;50.214;19.354;2023-07-24T11:51:46;11.88;;;8.93;;
40284;SDS011;25997;50.214;19.354;2023-07-24T11:54:57;10.07;;;7.50;;
40284;SDS011;25997;50.214;19.354;2023-07-24T11:58:01;10.30;;;8.15;;
40284;SDS011;25997;50.214;19.354;2023-07-24T12:01:04;9.68;;;7.90;;
40284;SDS011;25997;50.214;19.354;2023-07-24T12:04:07;9.55;;;8.07;;
40284;SDS011;25997;50.214;19.354;2023-07-24T12:07:09;10.52;;;9.38;;
40284;SDS011;25997;50.214;19.354;2023-07-24T12:10:13;8.63;;;7.72;;
40284;SDS011;25997;50.214;19.354;2023-07-24T12:13:28;8.45;;;7.50;;
40284;SDS011;25997;50.214;19.354;2023-07-24T12:16:33;10.52;;;8.82;;
40284;SDS011;25997;50.214;19.354;2023-07-24T12:19:36;9.02;;;8.10;;
40284;SDS011;25997;50.214;19.354;2023-07-24T12:22:38;9.20;;;7.40;;
40284;SDS011;25997;50.214;19.354;2023-07-24T12:25:42;9.35;;;8.40;;
40284;SDS011;25997;50.214;19.354;2023-07-24T12:28:45;10.23;;;8.75;;
40284;SDS011;25997;50.214;19.354;2023-07-24T12:31:47;9.30;;;8.10;;
40284;SDS011;25997;50.214;19.354;2023-07-24T12:34:50;10.50;;;9.18;;
40284;SDS011;25997;50.214;19.354;2023-07-24T12:37:53;10.55;;;9.45;;
40284;SDS011;25997;50.214;19.354;2023-07-24T12:40:57;10.02;;;8.70;;
40284;SDS011;25997;50.214;19.354;2023-07-24T12:43:59;10.63;;;9.57;;
40284;SDS011;25997;50.214;19.354;2023-07-24T12:47:02;10.10;;;8.35;;
40284;SDS011;25997;50.214;19.354;2023-07-24T12:50:05;10.35;;;8.68;;
40284;SDS011;25997;50.214;19.354;2023-07-24T12:53:08;10.02;;;9.05;;
40284;SDS011;25997;50.214;19.354;2023-07-24T12:56:12;13.20;;;9.15;;
40284;SDS011;25997;50.214;19.354;2023-07-24T12:59:14;10.23;;;9.20;;
40284;SDS011;25997;50.214;19.354;2023-07-24T13:02:17;11.10;;;9.15;;
40284;SDS011;25997;50.214;19.354;2023-07-24T13:05:19;10.93;;;9.85;;
40284;SDS011;25997;50.214;19.354;2023-07-24T13:08:21;11.18;;;10.18;;
40284;SDS011;25997;50.214;19.354;2023-07-24T13:11:25;9.90;;;8.98;;
40284;SDS011;25997;50.214;19.354;2023-07-24T13:14:28;10.82;;;9.57;;
40284;SDS011;25997;50.214;19.354;2023-07-24T13:17:31;11.65;;;10.43;;
40284;SDS011;25997;50.214;19.354;2023-07-24T13:20:33;10.82;;;9.73;;
40284;SDS011;25997;50.214;19.354;2023-07-24T13:23:36;9.73;;;8.68;;
40284;SDS011;25997;50.214;19.354;2023-07-24T13:26:39;9.85;;;8.95;;
40284;SDS011;25997;50.214;19.354;2023-07-24T13:29:43;10.93;;;9.80;;
40284;SDS011;25997;50.214;19.354;2023-07-24T13:32:45;10.43;;;9.43;;
40284;SDS011;25997;50.214;19.354;2023-07-24T13:35:48;11.63;;;10.52;;
40284;SDS011;25997;50.214;19.354;2023-07-24T13:38:50;10.13;;;9.02;;
40284;SDS011;25997;50.214;19.354;2023-07-24T13:41:54;11.38;;;10.38;;
40284;SDS011;25997;50.214;19.354;2023-07-24T13:44:57;10.50;;;9.40;;
40284;SDS011;25997;50.214;19.354;2023-07-24T13:47:59;11.30;;;10.30;;
40284;SDS011;25997;50.214;19.354;2023-07-24T13:51:02;12.00;;;10.80;;
40284;SDS011;25997;50.214;19.354;2023-07-24T13:54:05;11.20;;;10.10;;
40284;SDS011;25997;50.214;19.354;2023-07-24T13:57:09;11.70;;;10.50;;
40284;SDS011;25997;50.214;19.354;2023-07-24T14:00:11;12.02;;;10.88;;
40284;SDS011;25997;50.214;19.354;2023-07-24T14:03:16;11.88;;;9.73;;
40284;SDS011;25997;50.214;19.354;2023-07-24T14:06:18;10.98;;;9.85;;
40284;SDS011;25997;50.214;19.354;2023-07-24T14:09:20;11.57;;;10.40;;
40284;SDS011;25997;50.214;19.354;2023-07-24T14:12:24;11.82;;;10.30;;
40284;SDS011;25997;50.214;19.354;2023-07-24T14:15:26;12.13;;;9.18;;
40284;SDS011;25997;50.214;19.354;2023-07-24T14:18:29;10.68;;;9.05;;
40284;SDS011;25997;50.214;19.354;2023-07-24T14:21:31;11.40;;;10.27;;
40284;SDS011;25997;50.214;19.354;2023-07-24T14:24:34;10.45;;;9.45;;
40284;SDS011;25997;50.214;19.354;2023-07-24T14:27:37;11.35;;;10.25;;
40284;SDS011;25997;50.214;19.354;2023-07-24T14:30:40;12.93;;;9.65;;
40284;SDS011;25997;50.214;19.354;2023-07-24T14:33:42;9.65;;;8.63;;
40284;SDS011;25997;50.214;19.354;2023-07-24T14:36:44;11.90;;;9.60;;
40284;SDS011;25997;50.214;19.354;2023-07-24T14:39:47;10.95;;;8.90;;
40284;SDS011;25997;50.214;19.354;2023-07-24T14:42:51;11.30;;;9.43;;
40284;SDS011;25997;50.214;19.354;2023-07-24T14:45:53;13.70;;;9.80;;
40284;SDS011;25997;50.214;19.354;2023-07-24T14:48:55;11.23;;;8.70;;
40284;SDS011;25997;50.214;19.354;2023-07-24T14:51:58;11.15;;;9.75;;
40284;SDS011;25997;50.214;19.354;2023-07-24T14:55:00;10.05;;;8.23;;
40284;SDS011;25997;50.214;19.354;2023-07-24T14:58:05;11.90;;;8.15;;
40284;SDS011;25997;50.214;19.354;2023-07-24T15:01:07;10.65;;;9.35;;
40284;SDS011;25997;50.214;19.354;2023-07-24T15:04:09;10.70;;;8.75;;
40284;SDS011;25997;50.214;19.354;2023-07-24T15:07:12;11.32;;;8.88;;
40284;SDS011;25997;50.214;19.354;2023-07-24T15:10:14;10.13;;;8.70;;
40284;SDS011;25997;50.214;19.354;2023-07-24T15:13:18;10.63;;;8.68;;
40284;SDS011;25997;50.214;19.354;2023-07-24T15:16:20;9.98;;;8.07;;
40284;SDS011;25997;50.214;19.354;2023-07-24T15:19:23;11.27;;;9.00;;
40284;SDS011;25997;50.214;19.354;2023-07-24T15:22:25;12.15;;;9.10;;
40284;SDS011;25997;50.214;19.354;2023-07-24T15:25:28;11.02;;;9.05;;
40284;SDS011;25997;50.214;19.354;2023-07-24T15:28:31;10.65;;;8.90;;
40284;SDS011;25997;50.214;19.354;2023-07-24T15:31:34;10.38;;;8.73;;
40284;SDS011;25997;50.214;19.354;2023-07-24T15:34:37;10.80;;;9.10;;
40284;SDS011;25997;50.214;19.354;2023-07-24T15:37:39;13.02;;;9.25;;
40284;SDS011;25997;50.214;19.354;2023-07-24T15:40:42;11.77;;;10.20;;
40284;SDS011;25997;50.214;19.354;2023-07-24T15:43:45;11.40;;;9.13;;
40284;SDS011;25997;50.214;19.354;2023-07-24T15:46:48;12.95;;;10.10;;
40284;SDS011;25997;50.214;19.354;2023-07-24T15:49:50;13.10;;;9.23;;
40284;SDS011;25997;50.214;19.354;2023-07-24T15:52:52;17.23;;;11.75;;
40284;SDS011;25997;50.214;19.354;2023-07-24T15:55:55;13.48;;;10.70;;
40284;SDS011;25997;50.214;19.354;2023-07-24T15:58:59;12.45;;;9.73;;
40284;SDS011;25997;50.214;19.354;2023-07-24T16:02:02;13.05;;;9.50;;
40284;SDS011;25997;50.214;19.354;2023-07-24T16:05:05;13.00;;;10.00;;
40284;SDS011;25997;50.214;19.354;2023-07-24T16:08:18;12.98;;;9.68;;
40284;SDS011;25997;50.214;19.354;2023-07-24T16:11:20;11.07;;;8.50;;
40284;SDS011;25997;50.214;19.354;2023-07-24T16:14:24;13.82;;;9.70;;
40284;SDS011;25997;50.214;19.354;2023-07-24T16:17:27;16.67;;;10.30;;
40284;SDS011;25997;50.214;19.354;2023-07-24T16:20:30;15.02;;;9.90;;
40284;SDS011;25997;50.214;19.354;2023-07-24T16:23:32;14.40;;;9.45;;
40284;SDS011;25997;50.214;19.354;2023-07-24T16:26:35;12.40;;;8.63;;
40284;SDS011;25997;50.214;19.354;2023-07-24T16:29:39;10.68;;;7.82;;
40284;SDS011;25997;50.214;19.354;2023-07-24T16:32:42;10.77;;;7.60;;
40284;SDS011;25997;50.214;19.354;2023-07-24T16:35:45;10.32;;;7.93;;
40284;SDS011;25997;50.214;19.354;2023-07-24T16:38:48;10.02;;;8.07;;
40284;SDS011;25997;50.214;19.354;2023-07-24T16:41:50;13.85;;;9.25;;
40284;SDS011;25997;50.214;19.354;2023-07-24T16:44:54;11.07;;;7.53;;
40284;SDS011;25997;50.214;19.354;2023-07-24T16:47:57;10.88;;;8.20;;
40284;SDS011;25997;50.214;19.354;2023-07-24T16:50:59;10.77;;;7.57;;
40284;SDS011;25997;50.214;19.354;2023-07-24T16:54:02;13.65;;;9.02;;
40284;SDS011;25997;50.214;19.354;2023-07-24T16:57:04;13.95;;;11.18;;
40284;SDS011;25997;50.214;19.354;2023-07-24T17:00:10;12.43;;;9.73;;
40284;SDS011;25997;50.214;19.354;2023-07-24T17:03:13;14.77;;;10.55;;
40284;SDS011;25997;50.214;19.354;2023-07-24T17:06:15;11.90;;;9.63;;
40284;SDS011;25997;50.214;19.354;2023-07-24T17:09:18;12.38;;;8.23;;
40284;SDS011;25997;50.214;19.354;2023-07-24T17:12:20;15.07;;;9.35;;
40284;SDS011;25997;50.214;19.354;2023-07-24T17:15:24;15.07;;;10.10;;
40284;SDS011;25997;50.214;19.354;2023-07-24T17:18:27;13.95;;;9.50;;
40284;SDS011;25997;50.214;19.354;2023-07-24T17:21:29;12.60;;;9.45;;
40284;SDS011;25997;50.214;19.354;2023-07-24T17:24:31;15.63;;;11.55;;
40284;SDS011;25997;50.214;19.354;2023-07-24T17:27:34;16.67;;;11.05;;
40284;SDS011;25997;50.214;19.354;2023-07-24T17:30:38;14.43;;;9.48;;
40284;SDS011;25997;50.214;19.354;2023-07-24T17:33:41;18.33;;;11.63;;
40284;SDS011;25997;50.214;19.354;2023-07-24T17:36:43;14.48;;;11.55;;
40284;SDS011;25997;50.214;19.354;2023-07-24T17:39:46;14.38;;;10.02;;
40284;SDS011;25997;50.214;19.354;2023-07-24T17:42:48;18.60;;;11.82;;
40284;SDS011;25997;50.214;19.354;2023-07-24T17:45:53;16.05;;;9.90;;
40284;SDS011;25997;50.214;19.354;2023-07-24T17:48:55;14.48;;;11.10;;
40284;SDS011;25997;50.214;19.354;2023-07-24T17:51:58;12.20;;;7.75;;
40284;SDS011;25997;50.214;19.354;2023-07-24T17:55:00;11.25;;;9.55;;
40284;SDS011;25997;50.214;19.354;2023-07-24T17:58:03;14.95;;;11.05;;
40284;SDS011;25997;50.214;19.354;2023-07-24T18:01:07;13.27;;;11.95;;